To NAV CANADA Home Page Login to a new session Search on AWWS site Feedback and Comments Disclaimer Vers la page française équivalente Tips FAQ What's new on the site To the Forecasts and Observations / NOTAM section To "File a Flight Plan" website Publications and other links Update of the User's profile FIC Telephone Numbers My Weather Data Folder Route Weather Data Regional Weather Data Local Weather Data To the Forecasts and Observations / NOTAM section
Request Generated 01/21/2017 at 02:03:25 UTC . Weather information available at that time is displayed.

METAR/TAF

LA RONGE (BARBER FIELD)/SK    

METAR CYVC 210200Z 03005KT 5SM BR OVC004 M02/M03 A2940 RMK ST8
SLP982=
SPECI CYVC 210112Z 04006KT 5SM BR OVC003 M02/M03 A2941 RMK ST8
SLP983=
METAR CYVC 210100Z 05004KT 1SM BR OVC002 M02/M02 A2941 RMK FG4ST4
SLP983=
SPECI CYVC 210040Z 03007KT 1SM BR OVC003 M02/M03 A2939 RMK ST8
SLP977=
SPECI CYVC 210033Z 03007KT 10SM OVC004 M02/M03 A2939 RMK ST8 BR
SLP977=
METAR CYVC 210000Z 03003KT 12SM OVC006 M02/M03 A2939 RMK ST8 SLP978=

TAF AMD CYVC 210112Z 2101/2113 03003KT 3/4SM BR OVC002
RMK NXT FCST BY 210700Z=
Your time UTC time
Weather data provided by Environment Canada and NAV CANADA